Terminal Aerodrome Forecast
Issued by NWS

Home | Current Version | Previous Version | Text Only | Print | Product List | Glossary On
Versions: 1 2 3 4 5 6 7 8 9 10 11 12
516
FTUS41 KPBZ 290531
TAFBVI
TAF
KBVI 290531Z 2906/3006 00000KT P6SM SCT250
     FM290900 00000KT 5SM BR SCT200
     FM291300 21003KT P6SM BKN150
      AMD NOT SKED=

USA.gov is the U.S. government's official web portal to all federal, state and local government web resources and services.